sensor_id;sensor_type;location;lat;lon;timestamp;P1;durP1;ratioP1;P2;durP2;ratioP2
65315;SDS011;51920;53.952;10.292;2023-08-01T00:00:28;6.10;;;4.13;;
65315;SDS011;51920;53.952;10.292;2023-08-01T00:02:55;9.23;;;4.40;;
65315;SDS011;51920;53.952;10.292;2023-08-01T00:05:22;6.30;;;4.10;;
65315;SDS011;51920;53.952;10.292;2023-08-01T00:07:48;7.05;;;4.13;;
65315;SDS011;51920;53.952;10.292;2023-08-01T00:10:15;8.20;;;4.75;;
65315;SDS011;51920;53.952;10.292;2023-08-01T00:12:42;7.47;;;4.43;;
65315;SDS011;51920;53.952;10.292;2023-08-01T00:15:09;8.43;;;4.93;;
65315;SDS011;51920;53.952;10.292;2023-08-01T00:17:36;5.93;;;4.17;;
65315;SDS011;51920;53.952;10.292;2023-08-01T00:20:02;7.68;;;4.50;;
65315;SDS011;51920;53.952;10.292;2023-08-01T00:22:30;7.15;;;4.50;;
65315;SDS011;51920;53.952;10.292;2023-08-01T00:24:56;7.20;;;4.03;;
65315;SDS011;51920;53.952;10.292;2023-08-01T00:27:23;6.43;;;4.30;;
65315;SDS011;51920;53.952;10.292;2023-08-01T00:29:50;8.40;;;4.10;;
65315;SDS011;51920;53.952;10.292;2023-08-01T00:32:17;6.22;;;3.75;;
65315;SDS011;51920;53.952;10.292;2023-08-01T00:34:43;6.93;;;4.20;;
65315;SDS011;51920;53.952;10.292;2023-08-01T00:37:10;5.05;;;3.33;;
65315;SDS011;51920;53.952;10.292;2023-08-01T00:39:37;4.88;;;3.03;;
65315;SDS011;51920;53.952;10.292;2023-08-01T00:42:04;5.00;;;3.27;;
65315;SDS011;51920;53.952;10.292;2023-08-01T00:44:30;6.28;;;3.05;;
65315;SDS011;51920;53.952;10.292;2023-08-01T00:46:57;4.78;;;3.00;;
65315;SDS011;51920;53.952;10.292;2023-08-01T00:49:24;4.75;;;3.03;;
65315;SDS011;51920;53.952;10.292;2023-08-01T00:51:50;3.85;;;2.60;;
65315;SDS011;51920;53.952;10.292;2023-08-01T00:54:17;3.93;;;2.60;;
65315;SDS011;51920;53.952;10.292;2023-08-01T00:56:44;4.28;;;2.67;;
65315;SDS011;51920;53.952;10.292;2023-08-01T00:59:11;3.90;;;2.58;;
65315;SDS011;51920;53.952;10.292;2023-08-01T01:01:39;4.90;;;2.60;;
65315;SDS011;51920;53.952;10.292;2023-08-01T01:04:05;4.18;;;2.75;;
65315;SDS011;51920;53.952;10.292;2023-08-01T01:06:34;3.23;;;2.27;;
65315;SDS011;51920;53.952;10.292;2023-08-01T01:09:16;3.88;;;2.10;;
65315;SDS011;51920;53.952;10.292;2023-08-01T01:11:44;2.67;;;2.10;;
65315;SDS011;51920;53.952;10.292;2023-08-01T01:14:11;3.58;;;2.65;;
65315;SDS011;51920;53.952;10.292;2023-08-01T01:16:38;3.00;;;2.25;;
65315;SDS011;51920;53.952;10.292;2023-08-01T01:19:06;2.80;;;2.00;;
65315;SDS011;51920;53.952;10.292;2023-08-01T01:24:44;4.63;;;2.30;;
65315;SDS011;51920;53.952;10.292;2023-08-01T01:27:12;3.72;;;2.47;;
65315;SDS011;51920;53.952;10.292;2023-08-01T01:29:39;3.80;;;2.53;;
65315;SDS011;51920;53.952;10.292;2023-08-01T01:32:07;3.87;;;2.67;;
65315;SDS011;51920;53.952;10.292;2023-08-01T01:34:34;5.38;;;2.83;;
65315;SDS011;51920;53.952;10.292;2023-08-01T01:37:00;4.05;;;2.55;;
65315;SDS011;51920;53.952;10.292;2023-08-01T01:39:27;4.30;;;2.90;;
65315;SDS011;51920;53.952;10.292;2023-08-01T01:41:53;5.57;;;3.25;;
65315;SDS011;51920;53.952;10.292;2023-08-01T01:44:20;4.90;;;3.07;;
65315;SDS011;51920;53.952;10.292;2023-08-01T01:46:47;4.07;;;2.83;;
65315;SDS011;51920;53.952;10.292;2023-08-01T01:49:15;5.50;;;3.30;;
65315;SDS011;51920;53.952;10.292;2023-08-01T01:51:42;6.13;;;3.65;;
65315;SDS011;51920;53.952;10.292;2023-08-01T01:54:09;6.20;;;3.45;;
65315;SDS011;51920;53.952;10.292;2023-08-01T01:56:35;5.10;;;3.60;;
65315;SDS011;51920;53.952;10.292;2023-08-01T01:59:02;5.82;;;3.60;;
65315;SDS011;51920;53.952;10.292;2023-08-01T02:01:28;7.18;;;4.00;;
65315;SDS011;51920;53.952;10.292;2023-08-01T02:03:55;6.88;;;3.65;;
65315;SDS011;51920;53.952;10.292;2023-08-01T02:06:21;8.02;;;4.10;;
65315;SDS011;51920;53.952;10.292;2023-08-01T02:08:48;6.77;;;3.90;;
65315;SDS011;51920;53.952;10.292;2023-08-01T02:11:15;6.43;;;3.80;;
65315;SDS011;51920;53.952;10.292;2023-08-01T02:13:41;7.00;;;4.20;;
65315;SDS011;51920;53.952;10.292;2023-08-01T02:16:08;6.50;;;4.10;;
65315;SDS011;51920;53.952;10.292;2023-08-01T02:18:35;6.70;;;4.13;;
65315;SDS011;51920;53.952;10.292;2023-08-01T02:21:01;6.83;;;3.80;;
65315;SDS011;51920;53.952;10.292;2023-08-01T02:23:28;5.43;;;3.38;;
65315;SDS011;51920;53.952;10.292;2023-08-01T02:25:55;5.60;;;3.60;;
65315;SDS011;51920;53.952;10.292;2023-08-01T02:28:22;5.78;;;3.72;;
65315;SDS011;51920;53.952;10.292;2023-08-01T02:30:48;5.50;;;3.40;;
65315;SDS011;51920;53.952;10.292;2023-08-01T02:33:16;6.83;;;3.60;;
65315;SDS011;51920;53.952;10.292;2023-08-01T02:35:43;5.40;;;3.28;;
65315;SDS011;51920;53.952;10.292;2023-08-01T02:38:10;6.05;;;3.10;;
65315;SDS011;51920;53.952;10.292;2023-08-01T02:40:36;6.82;;;3.28;;
65315;SDS011;51920;53.952;10.292;2023-08-01T02:43:03;4.22;;;2.92;;
65315;SDS011;51920;53.952;10.292;2023-08-01T02:45:29;4.33;;;2.97;;
65315;SDS011;51920;53.952;10.292;2023-08-01T02:47:56;5.13;;;2.90;;
65315;SDS011;51920;53.952;10.292;2023-08-01T02:50:24;3.67;;;2.85;;
65315;SDS011;51920;53.952;10.292;2023-08-01T02:52:51;4.97;;;2.80;;
65315;SDS011;51920;53.952;10.292;2023-08-01T02:55:17;4.30;;;2.70;;
65315;SDS011;51920;53.952;10.292;2023-08-01T02:57:44;4.90;;;2.90;;
65315;SDS011;51920;53.952;10.292;2023-08-01T03:00:10;4.80;;;3.40;;
65315;SDS011;51920;53.952;10.292;2023-08-01T03:02:40;5.20;;;3.55;;
65315;SDS011;51920;53.952;10.292;2023-08-01T03:05:07;6.15;;;4.05;;
65315;SDS011;51920;53.952;10.292;2023-08-01T03:07:34;5.67;;;3.60;;
65315;SDS011;51920;53.952;10.292;2023-08-01T03:10:01;6.43;;;3.70;;
65315;SDS011;51920;53.952;10.292;2023-08-01T03:12:28;7.28;;;3.97;;
65315;SDS011;51920;53.952;10.292;2023-08-01T03:14:55;7.38;;;4.32;;
65315;SDS011;51920;53.952;10.292;2023-08-01T03:17:22;7.75;;;4.68;;
65315;SDS011;51920;53.952;10.292;2023-08-01T03:19:48;7.97;;;4.50;;
65315;SDS011;51920;53.952;10.292;2023-08-01T03:22:15;9.17;;;4.87;;
65315;SDS011;51920;53.952;10.292;2023-08-01T03:24:43;9.77;;;5.15;;
65315;SDS011;51920;53.952;10.292;2023-08-01T03:27:09;10.80;;;5.45;;
65315;SDS011;51920;53.952;10.292;2023-08-01T03:29:36;13.43;;;5.93;;
65315;SDS011;51920;53.952;10.292;2023-08-01T03:32:03;11.43;;;5.50;;
65315;SDS011;51920;53.952;10.292;2023-08-01T03:34:29;11.60;;;6.30;;
65315;SDS011;51920;53.952;10.292;2023-08-01T03:36:56;10.75;;;6.22;;
65315;SDS011;51920;53.952;10.292;2023-08-01T03:39:24;11.95;;;6.22;;
65315;SDS011;51920;53.952;10.292;2023-08-01T03:41:50;11.85;;;6.30;;
65315;SDS011;51920;53.952;10.292;2023-08-01T03:44:18;13.88;;;6.82;;
65315;SDS011;51920;53.952;10.292;2023-08-01T03:46:45;12.90;;;7.10;;
65315;SDS011;51920;53.952;10.292;2023-08-01T03:49:13;13.15;;;7.05;;
65315;SDS011;51920;53.952;10.292;2023-08-01T03:51:40;14.80;;;7.25;;
65315;SDS011;51920;53.952;10.292;2023-08-01T03:54:06;12.23;;;6.68;;
65315;SDS011;51920;53.952;10.292;2023-08-01T03:56:38;13.55;;;7.13;;
65315;SDS011;51920;53.952;10.292;2023-08-01T03:59:09;14.20;;;7.77;;
65315;SDS011;51920;53.952;10.292;2023-08-01T04:01:39;15.60;;;7.65;;
65315;SDS011;51920;53.952;10.292;2023-08-01T04:04:06;15.35;;;8.52;;
65315;SDS011;51920;53.952;10.292;2023-08-01T04:06:33;14.80;;;7.95;;
65315;SDS011;51920;53.952;10.292;2023-08-01T04:09:00;16.58;;;8.32;;
65315;SDS011;51920;53.952;10.292;2023-08-01T04:11:27;17.63;;;8.27;;
65315;SDS011;51920;53.952;10.292;2023-08-01T04:13:53;17.30;;;8.40;;
65315;SDS011;51920;53.952;10.292;2023-08-01T04:16:20;18.48;;;9.18;;
65315;SDS011;51920;53.952;10.292;2023-08-01T04:18:47;15.68;;;8.60;;
65315;SDS011;51920;53.952;10.292;2023-08-01T04:21:14;16.13;;;9.07;;
65315;SDS011;51920;53.952;10.292;2023-08-01T04:23:41;17.80;;;9.80;;
65315;SDS011;51920;53.952;10.292;2023-08-01T04:26:08;18.27;;;8.95;;
65315;SDS011;51920;53.952;10.292;2023-08-01T04:28:34;17.70;;;9.60;;
65315;SDS011;51920;53.952;10.292;2023-08-01T04:31:01;20.15;;;9.60;;
65315;SDS011;51920;53.952;10.292;2023-08-01T04:33:28;18.98;;;9.60;;
65315;SDS011;51920;53.952;10.292;2023-08-01T04:35:54;21.80;;;9.67;;
65315;SDS011;51920;53.952;10.292;2023-08-01T04:38:21;18.48;;;9.77;;
65315;SDS011;51920;53.952;10.292;2023-08-01T04:40:47;19.60;;;9.63;;
65315;SDS011;51920;53.952;10.292;2023-08-01T04:43:14;17.90;;;9.70;;
65315;SDS011;51920;53.952;10.292;2023-08-01T04:45:41;21.20;;;9.65;;
65315;SDS011;51920;53.952;10.292;2023-08-01T04:48:07;18.47;;;9.93;;
65315;SDS011;51920;53.952;10.292;2023-08-01T04:50:34;17.55;;;9.18;;
65315;SDS011;51920;53.952;10.292;2023-08-01T04:53:00;21.75;;;9.63;;
65315;SDS011;51920;53.952;10.292;2023-08-01T04:55:27;20.33;;;10.15;;
65315;SDS011;51920;53.952;10.292;2023-08-01T04:57:54;20.38;;;10.30;;
65315;SDS011;51920;53.952;10.292;2023-08-01T05:00:20;21.47;;;10.30;;
65315;SDS011;51920;53.952;10.292;2023-08-01T05:02:47;20.73;;;10.25;;
65315;SDS011;51920;53.952;10.292;2023-08-01T05:05:13;22.38;;;10.70;;
65315;SDS011;51920;53.952;10.292;2023-08-01T05:07:42;22.23;;;10.65;;
65315;SDS011;51920;53.952;10.292;2023-08-01T05:10:09;26.25;;;11.45;;
65315;SDS011;51920;53.952;10.292;2023-08-01T05:12:36;24.40;;;10.97;;
65315;SDS011;51920;53.952;10.292;2023-08-01T05:15:03;21.52;;;10.82;;
65315;SDS011;51920;53.952;10.292;2023-08-01T05:17:29;22.13;;;10.98;;
65315;SDS011;51920;53.952;10.292;2023-08-01T05:19:56;22.02;;;11.13;;
65315;SDS011;51920;53.952;10.292;2023-08-01T05:22:22;21.10;;;10.55;;
65315;SDS011;51920;53.952;10.292;2023-08-01T05:24:49;24.23;;;11.30;;
65315;SDS011;51920;53.952;10.292;2023-08-01T05:27:16;20.20;;;10.50;;
65315;SDS011;51920;53.952;10.292;2023-08-01T05:29:42;20.65;;;10.73;;
65315;SDS011;51920;53.952;10.292;2023-08-01T05:32:09;21.35;;;10.95;;
65315;SDS011;51920;53.952;10.292;2023-08-01T05:34:35;21.35;;;11.00;;
65315;SDS011;51920;53.952;10.292;2023-08-01T05:37:02;20.97;;;10.57;;
65315;SDS011;51920;53.952;10.292;2023-08-01T05:39:29;21.90;;;11.00;;
65315;SDS011;51920;53.952;10.292;2023-08-01T05:41:55;18.83;;;10.48;;
65315;SDS011;51920;53.952;10.292;2023-08-01T05:44:22;23.83;;;11.05;;
65315;SDS011;51920;53.952;10.292;2023-08-01T05:46:48;16.95;;;10.18;;
65315;SDS011;51920;53.952;10.292;2023-08-01T05:49:15;17.77;;;10.40;;
65315;SDS011;51920;53.952;10.292;2023-08-01T05:51:42;19.90;;;10.52;;
65315;SDS011;51920;53.952;10.292;2023-08-01T05:54:08;20.67;;;10.63;;
65315;SDS011;51920;53.952;10.292;2023-08-01T05:56:35;17.60;;;10.00;;
65315;SDS011;51920;53.952;10.292;2023-08-01T05:59:02;20.30;;;10.35;;
65315;SDS011;51920;53.952;10.292;2023-08-01T06:01:30;16.70;;;9.53;;
65315;SDS011;51920;53.952;10.292;2023-08-01T06:03:57;17.45;;;9.70;;
65315;SDS011;51920;53.952;10.292;2023-08-01T06:06:24;18.02;;;9.73;;
65315;SDS011;51920;53.952;10.292;2023-08-01T06:08:51;17.67;;;9.85;;
65315;SDS011;51920;53.952;10.292;2023-08-01T06:11:18;17.45;;;9.25;;
65315;SDS011;51920;53.952;10.292;2023-08-01T06:13:45;16.27;;;9.00;;
65315;SDS011;51920;53.952;10.292;2023-08-01T06:16:12;16.58;;;9.10;;
65315;SDS011;51920;53.952;10.292;2023-08-01T06:18:39;16.75;;;9.45;;
65315;SDS011;51920;53.952;10.292;2023-08-01T06:21:06;15.20;;;8.80;;
65315;SDS011;51920;53.952;10.292;2023-08-01T06:23:32;14.40;;;8.50;;
65315;SDS011;51920;53.952;10.292;2023-08-01T06:25:59;14.57;;;8.03;;
65315;SDS011;51920;53.952;10.292;2023-08-01T06:28:26;14.05;;;7.88;;
65315;SDS011;51920;53.952;10.292;2023-08-01T06:30:53;14.57;;;7.88;;
65315;SDS011;51920;53.952;10.292;2023-08-01T06:33:20;14.70;;;7.95;;
65315;SDS011;51920;53.952;10.292;2023-08-01T06:35:47;14.38;;;7.80;;
65315;SDS011;51920;53.952;10.292;2023-08-01T06:38:14;12.37;;;7.47;;
65315;SDS011;51920;53.952;10.292;2023-08-01T06:40:41;15.48;;;7.50;;
65315;SDS011;51920;53.952;10.292;2023-08-01T06:43:07;10.13;;;7.07;;
65315;SDS011;51920;53.952;10.292;2023-08-01T06:45:34;13.75;;;7.03;;
65315;SDS011;51920;53.952;10.292;2023-08-01T06:48:01;12.48;;;6.53;;
65315;SDS011;51920;53.952;10.292;2023-08-01T06:50:29;10.67;;;6.17;;
65315;SDS011;51920;53.952;10.292;2023-08-01T06:52:56;11.70;;;6.35;;
65315;SDS011;51920;53.952;10.292;2023-08-01T06:55:22;11.73;;;6.68;;
65315;SDS011;51920;53.952;10.292;2023-08-01T06:57:49;12.10;;;5.97;;
65315;SDS011;51920;53.952;10.292;2023-08-01T07:00:16;8.68;;;5.93;;
65315;SDS011;51920;53.952;10.292;2023-08-01T07:02:43;8.83;;;5.57;;
65315;SDS011;51920;53.952;10.292;2023-08-01T07:05:10;9.98;;;5.85;;
65315;SDS011;51920;53.952;10.292;2023-08-01T07:07:36;9.60;;;5.72;;
65315;SDS011;51920;53.952;10.292;2023-08-01T07:10:03;8.23;;;5.32;;
65315;SDS011;51920;53.952;10.292;2023-08-01T07:12:30;8.63;;;4.95;;
65315;SDS011;51920;53.952;10.292;2023-08-01T07:14:57;7.53;;;5.20;;
65315;SDS011;51920;53.952;10.292;2023-08-01T07:17:25;9.27;;;5.35;;
65315;SDS011;51920;53.952;10.292;2023-08-01T07:19:51;7.15;;;4.93;;
65315;SDS011;51920;53.952;10.292;2023-08-01T07:22:18;8.68;;;5.07;;
65315;SDS011;51920;53.952;10.292;2023-08-01T07:24:45;9.25;;;5.18;;
65315;SDS011;51920;53.952;10.292;2023-08-01T07:27:12;9.67;;;5.13;;
65315;SDS011;51920;53.952;10.292;2023-08-01T07:29:38;9.75;;;4.85;;
65315;SDS011;51920;53.952;10.292;2023-08-01T07:32:05;7.90;;;4.88;;
65315;SDS011;51920;53.952;10.292;2023-08-01T07:34:32;8.00;;;4.82;;
65315;SDS011;51920;53.952;10.292;2023-08-01T07:36:59;9.30;;;5.05;;
65315;SDS011;51920;53.952;10.292;2023-08-01T07:39:26;7.07;;;4.47;;
65315;SDS011;51920;53.952;10.292;2023-08-01T07:41:52;8.48;;;5.03;;
65315;SDS011;51920;53.952;10.292;2023-08-01T07:44:19;8.32;;;5.00;;
65315;SDS011;51920;53.952;10.292;2023-08-01T07:46:46;8.82;;;4.80;;
65315;SDS011;51920;53.952;10.292;2023-08-01T07:49:13;8.52;;;5.07;;
65315;SDS011;51920;53.952;10.292;2023-08-01T07:51:39;10.50;;;4.50;;
65315;SDS011;51920;53.952;10.292;2023-08-01T07:54:06;7.78;;;4.35;;
65315;SDS011;51920;53.952;10.292;2023-08-01T07:56:33;6.82;;;4.35;;
65315;SDS011;51920;53.952;10.292;2023-08-01T07:59:00;6.97;;;4.20;;
65315;SDS011;51920;53.952;10.292;2023-08-01T08:01:27;7.20;;;4.18;;
65315;SDS011;51920;53.952;10.292;2023-08-01T08:03:55;6.00;;;3.70;;
65315;SDS011;51920;53.952;10.292;2023-08-01T08:06:22;5.70;;;3.50;;
65315;SDS011;51920;53.952;10.292;2023-08-01T08:08:50;5.75;;;3.08;;
65315;SDS011;51920;53.952;10.292;2023-08-01T08:11:16;5.47;;;3.13;;
65315;SDS011;51920;53.952;10.292;2023-08-01T08:13:43;5.20;;;3.13;;
65315;SDS011;51920;53.952;10.292;2023-08-01T08:16:10;9.57;;;3.00;;
65315;SDS011;51920;53.952;10.292;2023-08-01T08:18:36;5.68;;;3.03;;
65315;SDS011;51920;53.952;10.292;2023-08-01T08:21:03;6.07;;;3.50;;
65315;SDS011;51920;53.952;10.292;2023-08-01T08:23:30;7.15;;;3.47;;
65315;SDS011;51920;53.952;10.292;2023-08-01T08:25:56;6.38;;;3.50;;
65315;SDS011;51920;53.952;10.292;2023-08-01T08:28:29;5.77;;;2.70;;
65315;SDS011;51920;53.952;10.292;2023-08-01T08:30:57;3.65;;;1.75;;
65315;SDS011;51920;53.952;10.292;2023-08-01T08:33:25;2.15;;;1.60;;
65315;SDS011;51920;53.952;10.292;2023-08-01T08:35:52;2.20;;;1.60;;
65315;SDS011;51920;53.952;10.292;2023-08-01T08:38:18;4.07;;;1.77;;
65315;SDS011;51920;53.952;10.292;2023-08-01T08:40:55;6.30;;;2.30;;
65315;SDS011;51920;53.952;10.292;2023-08-01T08:43:45;4.30;;;2.53;;
65315;SDS011;51920;53.952;10.292;2023-08-01T08:46:17;4.00;;;2.55;;
65315;SDS011;51920;53.952;10.292;2023-08-01T08:48:47;6.35;;;2.80;;
65315;SDS011;51920;53.952;10.292;2023-08-01T08:51:14;4.72;;;3.05;;
65315;SDS011;51920;53.952;10.292;2023-08-01T08:53:41;5.27;;;2.90;;
65315;SDS011;51920;53.952;10.292;2023-08-01T08:56:10;6.00;;;3.10;;
65315;SDS011;51920;53.952;10.292;2023-08-01T08:58:37;7.38;;;3.10;;
65315;SDS011;51920;53.952;10.292;2023-08-01T09:01:07;6.03;;;3.20;;
65315;SDS011;51920;53.952;10.292;2023-08-01T09:03:34;6.32;;;2.95;;
65315;SDS011;51920;53.952;10.292;2023-08-01T09:06:07;5.57;;;3.00;;
65315;SDS011;51920;53.952;10.292;2023-08-01T09:08:36;5.65;;;3.03;;
65315;SDS011;51920;53.952;10.292;2023-08-01T09:11:03;6.28;;;3.00;;
65315;SDS011;51920;53.952;10.292;2023-08-01T09:13:31;5.97;;;2.90;;
65315;SDS011;51920;53.952;10.292;2023-08-01T09:15:58;4.63;;;2.42;;
65315;SDS011;51920;53.952;10.292;2023-08-01T09:18:28;3.80;;;2.77;;
65315;SDS011;51920;53.952;10.292;2023-08-01T09:20:55;5.13;;;2.70;;
65315;SDS011;51920;53.952;10.292;2023-08-01T09:23:28;4.57;;;2.90;;
65315;SDS011;51920;53.952;10.292;2023-08-01T09:25:57;4.47;;;2.60;;
65315;SDS011;51920;53.952;10.292;2023-08-01T09:28:25;4.28;;;2.30;;
65315;SDS011;51920;53.952;10.292;2023-08-01T09:30:54;5.40;;;2.50;;
65315;SDS011;51920;53.952;10.292;2023-08-01T09:33:23;3.70;;;2.05;;
65315;SDS011;51920;53.952;10.292;2023-08-01T09:35:50;3.28;;;2.10;;
65315;SDS011;51920;53.952;10.292;2023-08-01T09:38:18;3.90;;;2.33;;
65315;SDS011;51920;53.952;10.292;2023-08-01T09:40:45;4.47;;;2.45;;
65315;SDS011;51920;53.952;10.292;2023-08-01T09:43:13;4.63;;;2.30;;
65315;SDS011;51920;53.952;10.292;2023-08-01T09:45:53;4.20;;;2.20;;
65315;SDS011;51920;53.952;10.292;2023-08-01T09:48:21;5.72;;;2.15;;
65315;SDS011;51920;53.952;10.292;2023-08-01T09:51:07;3.95;;;2.10;;
65315;SDS011;51920;53.952;10.292;2023-08-01T09:53:36;2.30;;;1.92;;
65315;SDS011;51920;53.952;10.292;2023-08-01T09:56:22;4.40;;;1.90;;
65315;SDS011;51920;53.952;10.292;2023-08-01T09:58:54;2.83;;;1.90;;
65315;SDS011;51920;53.952;10.292;2023-08-01T10:01:23;5.38;;;2.22;;
65315;SDS011;51920;53.952;10.292;2023-08-01T10:03:51;3.58;;;2.20;;
65315;SDS011;51920;53.952;10.292;2023-08-01T10:06:19;3.45;;;2.13;;
65315;SDS011;51920;53.952;10.292;2023-08-01T10:08:51;3.37;;;2.13;;
65315;SDS011;51920;53.952;10.292;2023-08-01T10:11:19;4.47;;;2.33;;
65315;SDS011;51920;53.952;10.292;2023-08-01T10:13:47;3.25;;;2.50;;
65315;SDS011;51920;53.952;10.292;2023-08-01T10:16:14;3.88;;;2.75;;
65315;SDS011;51920;53.952;10.292;2023-08-01T10:18:42;3.83;;;2.40;;
65315;SDS011;51920;53.952;10.292;2023-08-01T10:21:11;4.93;;;2.20;;
65315;SDS011;51920;53.952;10.292;2023-08-01T10:23:40;3.65;;;2.42;;
65315;SDS011;51920;53.952;10.292;2023-08-01T10:26:08;4.22;;;2.22;;
65315;SDS011;51920;53.952;10.292;2023-08-01T10:28:38;3.42;;;2.30;;
65315;SDS011;51920;53.952;10.292;2023-08-01T10:31:07;4.63;;;2.08;;
65315;SDS011;51920;53.952;10.292;2023-08-01T10:33:36;2.83;;;2.10;;
65315;SDS011;51920;53.952;10.292;2023-08-01T10:36:17;3.28;;;2.00;;
65315;SDS011;51920;53.952;10.292;2023-08-01T10:38:46;4.35;;;2.30;;
65315;SDS011;51920;53.952;10.292;2023-08-01T10:41:27;3.53;;;1.80;;
65315;SDS011;51920;53.952;10.292;2023-08-01T10:44:15;2.30;;;1.30;;
65315;SDS011;51920;53.952;10.292;2023-08-01T10:46:46;2.33;;;1.37;;
65315;SDS011;51920;53.952;10.292;2023-08-01T10:49:14;2.03;;;1.38;;
65315;SDS011;51920;53.952;10.292;2023-08-01T10:51:42;3.60;;;1.83;;
65315;SDS011;51920;53.952;10.292;2023-08-01T10:54:22;4.13;;;1.60;;
65315;SDS011;51920;53.952;10.292;2023-08-01T10:56:56;4.82;;;2.10;;
65315;SDS011;51920;53.952;10.292;2023-08-01T10:59:26;4.90;;;1.90;;
65315;SDS011;51920;53.952;10.292;2023-08-01T11:01:57;5.55;;;1.98;;
65315;SDS011;51920;53.952;10.292;2023-08-01T11:04:24;4.78;;;1.90;;
65315;SDS011;51920;53.952;10.292;2023-08-01T11:06:54;3.78;;;1.95;;
65315;SDS011;51920;53.952;10.292;2023-08-01T11:09:23;3.78;;;1.95;;
65315;SDS011;51920;53.952;10.292;2023-08-01T11:11:57;3.83;;;1.83;;
65315;SDS011;51920;53.952;10.292;2023-08-01T11:14:26;3.90;;;1.85;;
65315;SDS011;51920;53.952;10.292;2023-08-01T11:16:54;3.33;;;1.90;;
65315;SDS011;51920;53.952;10.292;2023-08-01T11:21:49;5.80;;;2.00;;
65315;SDS011;51920;53.952;10.292;2023-08-01T11:24:17;2.70;;;1.97;;
65315;SDS011;51920;53.952;10.292;2023-08-01T11:26:46;2.15;;;1.60;;
65315;SDS011;51920;53.952;10.292;2023-08-01T11:29:14;3.78;;;1.88;;
65315;SDS011;51920;53.952;10.292;2023-08-01T11:31:51;3.00;;;1.90;;
65315;SDS011;51920;53.952;10.292;2023-08-01T11:34:19;3.40;;;1.92;;
65315;SDS011;51920;53.952;10.292;2023-08-01T11:36:45;4.43;;;2.00;;
65315;SDS011;51920;53.952;10.292;2023-08-01T11:39:12;3.47;;;1.67;;
65315;SDS011;51920;53.952;10.292;2023-08-01T11:41:41;2.65;;;1.70;;
65315;SDS011;51920;53.952;10.292;2023-08-01T11:44:09;2.88;;;1.48;;
65315;SDS011;51920;53.952;10.292;2023-08-01T11:46:38;3.08;;;1.60;;
65315;SDS011;51920;53.952;10.292;2023-08-01T11:49:05;2.60;;;1.47;;
65315;SDS011;51920;53.952;10.292;2023-08-01T11:51:39;2.05;;;1.40;;
65315;SDS011;51920;53.952;10.292;2023-08-01T11:54:07;2.47;;;1.58;;
65315;SDS011;51920;53.952;10.292;2023-08-01T11:56:37;2.58;;;1.20;;
65315;SDS011;51920;53.952;10.292;2023-08-01T11:59:15;2.03;;;1.35;;
65315;SDS011;51920;53.952;10.292;2023-08-01T12:01:44;2.93;;;1.47;;
65315;SDS011;51920;53.952;10.292;2023-08-01T12:04:23;1.85;;;1.35;;
65315;SDS011;51920;53.952;10.292;2023-08-01T12:06:50;2.35;;;1.27;;
65315;SDS011;51920;53.952;10.292;2023-08-01T12:09:19;1.23;;;1.13;;
65315;SDS011;51920;53.952;10.292;2023-08-01T12:11:46;2.53;;;1.25;;
65315;SDS011;51920;53.952;10.292;2023-08-01T12:14:25;1.30;;;1.00;;
65315;SDS011;51920;53.952;10.292;2023-08-01T12:16:54;1.88;;;1.42;;
65315;SDS011;51920;53.952;10.292;2023-08-01T12:19:20;1.95;;;1.50;;
65315;SDS011;51920;53.952;10.292;2023-08-01T12:21:47;5.90;;;3.00;;
65315;SDS011;51920;53.952;10.292;2023-08-01T12:24:15;2.28;;;1.30;;
65315;SDS011;51920;53.952;10.292;2023-08-01T12:26:42;88.40;;;32.10;;
65315;SDS011;51920;53.952;10.292;2023-08-01T12:29:08;35.38;;;14.25;;
65315;SDS011;51920;53.952;10.292;2023-08-01T12:31:36;28.05;;;11.85;;
65315;SDS011;51920;53.952;10.292;2023-08-01T12:34:03;2.30;;;1.58;;
65315;SDS011;51920;53.952;10.292;2023-08-01T12:36:29;19.42;;;12.23;;
65315;SDS011;51920;53.952;10.292;2023-08-01T12:38:56;5.07;;;3.53;;
65315;SDS011;51920;53.952;10.292;2023-08-01T12:41:23;4.85;;;2.95;;
65315;SDS011;51920;53.952;10.292;2023-08-01T12:43:50;2.90;;;1.65;;
65315;SDS011;51920;53.952;10.292;2023-08-01T12:46:17;3.35;;;1.58;;
65315;SDS011;51920;53.952;10.292;2023-08-01T12:48:43;2.47;;;1.50;;
65315;SDS011;51920;53.952;10.292;2023-08-01T12:51:10;6.33;;;1.27;;
65315;SDS011;51920;53.952;10.292;2023-08-01T12:53:37;2.25;;;1.30;;
65315;SDS011;51920;53.952;10.292;2023-08-01T12:56:08;2.90;;;1.42;;
65315;SDS011;51920;53.952;10.292;2023-08-01T12:58:35;2.45;;;1.50;;
65315;SDS011;51920;53.952;10.292;2023-08-01T13:01:02;2.72;;;1.35;;
65315;SDS011;51920;53.952;10.292;2023-08-01T13:03:30;1.73;;;1.47;;
65315;SDS011;51920;53.952;10.292;2023-08-01T13:05:57;2.17;;;1.58;;
65315;SDS011;51920;53.952;10.292;2023-08-01T13:08:24;1.80;;;1.30;;
65315;SDS011;51920;53.952;10.292;2023-08-01T13:10:51;2.15;;;1.40;;
65315;SDS011;51920;53.952;10.292;2023-08-01T13:13:18;2.22;;;1.30;;
65315;SDS011;51920;53.952;10.292;2023-08-01T13:15:45;1.43;;;1.17;;
65315;SDS011;51920;53.952;10.292;2023-08-01T13:18:12;1.45;;;1.00;;
65315;SDS011;51920;53.952;10.292;2023-08-01T13:20:39;2.13;;;1.30;;
65315;SDS011;51920;53.952;10.292;2023-08-01T13:23:06;1.88;;;1.00;;
65315;SDS011;51920;53.952;10.292;2023-08-01T13:25:33;2.33;;;1.00;;
65315;SDS011;51920;53.952;10.292;2023-08-01T13:27:59;2.17;;;1.20;;
65315;SDS011;51920;53.952;10.292;2023-08-01T13:30:27;1.73;;;1.00;;
65315;SDS011;51920;53.952;10.292;2023-08-01T13:32:54;2.58;;;1.02;;
65315;SDS011;51920;53.952;10.292;2023-08-01T13:35:21;1.77;;;1.10;;
65315;SDS011;51920;53.952;10.292;2023-08-01T13:37:48;1.88;;;1.10;;
65315;SDS011;51920;53.952;10.292;2023-08-01T13:40:14;2.43;;;1.10;;
65315;SDS011;51920;53.952;10.292;2023-08-01T13:42:41;2.85;;;1.10;;
65315;SDS011;51920;53.952;10.292;2023-08-01T13:45:08;1.30;;;1.00;;
65315;SDS011;51920;53.952;10.292;2023-08-01T13:47:35;2.03;;;1.17;;
65315;SDS011;51920;53.952;10.292;2023-08-01T13:50:02;1.80;;;1.00;;
65315;SDS011;51920;53.952;10.292;2023-08-01T13:52:28;1.63;;;1.10;;
65315;SDS011;51920;53.952;10.292;2023-08-01T13:54:55;1.45;;;1.30;;
65315;SDS011;51920;53.952;10.292;2023-08-01T13:57:22;1.15;;;1.05;;
65315;SDS011;51920;53.952;10.292;2023-08-01T13:59:50;2.70;;;1.80;;
65315;SDS011;51920;53.952;10.292;2023-08-01T14:02:20;1.95;;;1.17;;
65315;SDS011;51920;53.952;10.292;2023-08-01T14:04:50;3.03;;;1.30;;
65315;SDS011;51920;53.952;10.292;2023-08-01T14:07:17;1.50;;;1.27;;
65315;SDS011;51920;53.952;10.292;2023-08-01T14:09:44;1.85;;;1.10;;
65315;SDS011;51920;53.952;10.292;2023-08-01T14:12:11;1.75;;;1.20;;
65315;SDS011;51920;53.952;10.292;2023-08-01T14:14:37;1.63;;;1.00;;
65315;SDS011;51920;53.952;10.292;2023-08-01T14:17:04;1.13;;;1.00;;
65315;SDS011;51920;53.952;10.292;2023-08-01T14:19:31;1.42;;;1.10;;
65315;SDS011;51920;53.952;10.292;2023-08-01T14:21:58;0.90;;;0.90;;
65315;SDS011;51920;53.952;10.292;2023-08-01T14:24:25;2.67;;;1.08;;
65315;SDS011;51920;53.952;10.292;2023-08-01T14:26:52;1.55;;;1.00;;
65315;SDS011;51920;53.952;10.292;2023-08-01T14:29:19;1.10;;;0.90;;
65315;SDS011;51920;53.952;10.292;2023-08-01T14:31:48;1.13;;;1.00;;
65315;SDS011;51920;53.952;10.292;2023-08-01T14:34:18;1.23;;;1.08;;
65315;SDS011;51920;53.952;10.292;2023-08-01T14:36:45;1.35;;;0.93;;
65315;SDS011;51920;53.952;10.292;2023-08-01T14:39:13;1.30;;;0.90;;